Time;durP1;ratioP1;P1;durP2;ratioP2;P2;SDS_P1;SDS_P2;PMS_P1;PMS_P2;Temp;Humidity;BMP_temperature;BMP_pressure;BME280_temperature;BME280_humidity;BME280_pressure;Samples;Min_cycle;Max_cycle;Signal;HPM_P1;HPM_P2
2023/07/11 00:02:05;;;;;;;6.90;4.60;;;;;;;;;;5052982;28;20091;-75
2023/07/11 00:04:34;;;;;;;5.87;4.20;;;;;;;;;;5052857;28;20281;-75
2023/07/11 00:06:59;;;;;;;6.80;4.45;;;;;;;;;;5052930;28;20254;-75
2023/07/11 00:09:24;;;;;;;6.93;4.77;;;;;;;;;;5052965;28;20364;-75
2023/07/11 00:11:49;;;;;;;6.90;4.10;;;;;;;;;;5052865;28;20265;-75
2023/07/11 00:14:15;;;;;;;6.87;4.17;;;;;;;;;;5052788;28;20317;-75
2023/07/11 00:16:40;;;;;;;5.60;4.10;;;;;;;;;;5052729;28;20250;-75
2023/07/11 00:19:06;;;;;;;4.63;3.75;;;;;;;;;;5052768;28;20273;-75
2023/07/11 00:21:31;;;;;;;5.28;4.05;;;;;;;;;;5051493;28;20025;-75
2023/07/11 00:24:03;;;;;;;6.85;4.22;;;;;;;;;;5052965;28;20025;-75
2023/07/11 00:26:32;;;;;;;8.50;4.10;;;;;;;;;;5052855;28;20053;-75
2023/07/11 00:29:18;;;;;;;7.20;4.30;;;;;;;;;;5051467;28;20021;-75
2023/07/11 00:31:43;;;;;;;5.38;4.30;;;;;;;;;;5052756;28;20108;-75
2023/07/11 00:34:09;;;;;;;7.80;4.75;;;;;;;;;;5052746;28;20441;-76
2023/07/11 00:36:34;;;;;;;9.70;4.47;;;;;;;;;;5052827;28;20017;-74
2023/07/11 00:38:59;;;;;;;8.40;4.07;;;;;;;;;;5052573;28;20029;-75
2023/07/11 00:41:24;;;;;;;6.90;4.70;;;;;;;;;;5051161;28;20270;-75
2023/07/11 00:43:49;;;;;;;8.30;4.43;;;;;;;;;;5052733;28;20296;-75
2023/07/11 00:46:17;;;;;;;8.73;3.90;;;;;;;;;;5052543;28;20266;-75
2023/07/11 00:48:49;;;;;;;7.90;4.68;;;;;;;;;;5054619;28;20250;-75
2023/07/11 00:51:20;;;;;;;7.93;4.35;;;;;;;;;;5055756;28;20032;-74
2023/07/11 00:53:46;;;;;;;7.25;4.05;;;;;;;;;;5056753;28;20025;-75
2023/07/11 00:56:16;;;;;;;5.63;4.38;;;;;;;;;;5056343;28;20096;-75
2023/07/11 00:58:44;;;;;;;5.57;4.13;;;;;;;;;;5056114;28;20060;-77
2023/07/11 01:01:11;;;;;;;6.30;4.13;;;;;;;;;;5054995;28;20537;-74
2023/07/11 01:03:36;;;;;;;5.70;4.28;;;;;;;;;;5056181;28;20029;-74
2023/07/11 01:06:01;;;;;;;8.98;3.78;;;;;;;;;;5056226;28;20090;-75
2023/07/11 01:08:27;;;;;;;7.03;4.50;;;;;;;;;;5056166;28;20055;-75
2023/07/11 01:10:52;;;;;;;6.87;4.30;;;;;;;;;;5054755;28;20429;-75
2023/07/11 01:13:18;;;;;;;6.40;4.20;;;;;;;;;;5056263;28;20362;-75
2023/07/11 01:15:43;;;;;;;6.13;4.20;;;;;;;;;;5055891;28;20037;-75
2023/07/11 01:18:08;;;;;;;6.82;4.13;;;;;;;;;;5056256;28;20435;-75
2023/07/11 01:20:33;;;;;;;7.33;4.07;;;;;;;;;;5055908;28;20506;-75
2023/07/11 01:22:59;;;;;;;7.30;4.27;;;;;;;;;;5055981;28;20769;-76
2023/07/11 01:25:24;;;;;;;4.97;3.85;;;;;;;;;;5055776;28;20258;-75
2023/07/11 01:27:50;;;;;;;7.15;3.92;;;;;;;;;;5055834;28;20024;-74
2023/07/11 01:30:18;;;;;;;5.05;3.90;;;;;;;;;;5055729;28;20029;-76
2023/07/11 01:32:44;;;;;;;5.75;4.03;;;;;;;;;;5055596;28;20029;-75
2023/07/11 01:35:09;;;;;;;8.20;4.38;;;;;;;;;;5055860;28;20078;-75
2023/07/11 01:37:35;;;;;;;5.75;4.05;;;;;;;;;;5055621;28;20120;-74
2023/07/11 01:40:01;;;;;;;7.70;4.38;;;;;;;;;;5055491;28;20044;-75
2023/07/11 01:42:26;;;;;;;6.90;4.05;;;;;;;;;;5055523;28;20450;-75
2023/07/11 01:44:52;;;;;;;5.35;4.07;;;;;;;;;;5055295;28;20033;-75
2023/07/11 01:47:18;;;;;;;6.28;4.22;;;;;;;;;;5055392;28;20107;-75
2023/07/11 01:49:43;;;;;;;5.80;3.83;;;;;;;;;;5055333;28;20103;-75
2023/07/11 01:52:14;;;;;;;5.68;3.92;;;;;;;;;;5055543;28;20036;-75
2023/07/11 01:54:39;;;;;;;4.38;3.67;;;;;;;;;;5055305;28;20017;-74
2023/07/11 01:57:07;;;;;;;5.93;3.70;;;;;;;;;;5055500;28;20106;-76
2023/07/11 01:59:33;;;;;;;5.80;4.03;;;;;;;;;;5054383;28;20782;-75
2023/07/11 02:01:58;;;;;;;4.38;3.88;;;;;;;;;;5054991;28;20037;-75
2023/07/11 02:04:24;;;;;;;8.35;4.68;;;;;;;;;;5055469;28;20082;-74
2023/07/11 02:06:50;;;;;;;5.45;4.18;;;;;;;;;;5055147;28;20112;-75
2023/07/11 02:09:16;;;;;;;6.47;4.50;;;;;;;;;;5054986;28;20060;-76
2023/07/11 02:11:41;;;;;;;5.82;4.22;;;;;;;;;;5055527;28;20028;-75
2023/07/11 02:14:07;;;;;;;5.35;4.07;;;;;;;;;;5055265;28;20021;-75
2023/07/11 02:16:32;;;;;;;7.90;4.53;;;;;;;;;;5054771;28;20074;-75
2023/07/11 02:18:57;;;;;;;6.60;4.67;;;;;;;;;;5055241;28;20365;-76
2023/07/11 02:21:22;;;;;;;6.93;4.60;;;;;;;;;;5055379;28;20609;-76
2023/07/11 02:23:48;;;;;;;8.80;4.57;;;;;;;;;;5054665;28;20637;-75
2023/07/11 02:26:15;;;;;;;7.72;4.85;;;;;;;;;;5054649;28;20074;-75
2023/07/11 02:28:40;;;;;;;9.15;4.63;;;;;;;;;;5053321;28;20021;-75
2023/07/11 02:31:05;;;;;;;7.90;4.57;;;;;;;;;;5054532;28;20123;-76
2023/07/11 02:33:30;;;;;;;7.03;4.47;;;;;;;;;;5054544;28;20021;-75
2023/07/11 02:35:55;;;;;;;11.60;4.70;;;;;;;;;;5054490;28;20254;-75
2023/07/11 02:38:21;;;;;;;6.67;4.53;;;;;;;;;;5054447;28;20258;-76
2023/07/11 02:40:46;;;;;;;8.47;4.60;;;;;;;;;;5054271;28;20357;-75
2023/07/11 02:43:11;;;;;;;7.47;4.60;;;;;;;;;;5054307;28;20368;-75
2023/07/11 02:45:36;;;;;;;10.80;4.83;;;;;;;;;;5054186;28;20341;-75
2023/07/11 02:48:02;;;;;;;8.63;4.65;;;;;;;;;;5054762;28;20282;-75
2023/07/11 02:50:27;;;;;;;6.63;4.68;;;;;;;;;;5054225;28;20391;-75
2023/07/11 02:52:52;;;;;;;7.67;4.53;;;;;;;;;;5054395;28;20027;-75
2023/07/11 02:55:18;;;;;;;9.23;4.40;;;;;;;;;;5052729;28;20258;-75
2023/07/11 02:57:43;;;;;;;7.18;4.90;;;;;;;;;;5054063;28;20277;-75
2023/07/11 03:00:09;;;;;;;10.27;4.78;;;;;;;;;;5054030;28;20029;-76
2023/07/11 03:02:34;;;;;;;9.90;4.10;;;;;;;;;;5053861;28;20048;-75
2023/07/11 03:05:00;;;;;;;8.25;4.57;;;;;;;;;;5053888;28;20060;-75
2023/07/11 03:07:25;;;;;;;7.50;4.55;;;;;;;;;;5053826;28;20060;-75
2023/07/11 03:09:50;;;;;;;5.67;4.40;;;;;;;;;;5053806;28;20029;-75
2023/07/11 03:12:15;;;;;;;7.70;4.67;;;;;;;;;;5053553;28;20257;-75
2023/07/11 03:14:41;;;;;;;8.30;5.40;;;;;;;;;;5052904;28;20250;-75
2023/07/11 03:17:06;;;;;;;8.48;4.57;;;;;;;;;;5053757;28;20616;-75
2023/07/11 03:19:31;;;;;;;10.17;5.10;;;;;;;;;;5053987;28;20107;-75
2023/07/11 03:21:56;;;;;;;8.70;4.60;;;;;;;;;;5053683;28;20261;-75
2023/07/11 03:24:22;;;;;;;7.35;4.53;;;;;;;;;;5053526;28;20813;-76
2023/07/11 03:26:47;;;;;;;6.10;4.40;;;;;;;;;;5053416;28;20033;-75
2023/07/11 03:29:14;;;;;;;6.95;4.50;;;;;;;;;;5052211;28;20269;-75
2023/07/11 03:31:39;;;;;;;5.88;4.57;;;;;;;;;;5052180;28;20492;-75
2023/07/11 03:34:05;;;;;;;6.35;4.15;;;;;;;;;;5053374;28;20017;-75
2023/07/11 03:36:30;;;;;;;6.97;4.63;;;;;;;;;;5053515;28;20029;-74
2023/07/11 03:38:55;;;;;;;6.93;5.00;;;;;;;;;;5053467;28;20025;-75
2023/07/11 03:41:20;;;;;;;7.17;4.93;;;;;;;;;;5051794;28;20364;-75
2023/07/11 03:43:46;;;;;;;7.33;4.70;;;;;;;;;;5053123;28;20381;-75
2023/07/11 03:46:11;;;;;;;6.70;4.32;;;;;;;;;;5053107;28;20361;-75
2023/07/11 03:48:36;;;;;;;6.70;4.63;;;;;;;;;;5053695;28;20475;-75
2023/07/11 03:51:01;;;;;;;6.20;4.60;;;;;;;;;;5051901;28;20760;-74
2023/07/11 03:53:26;;;;;;;5.90;4.57;;;;;;;;;;5051820;28;20759;-75
2023/07/11 03:55:52;;;;;;;5.67;4.80;;;;;;;;;;5052981;28;20266;-75
2023/07/11 03:58:17;;;;;;;5.97;4.60;;;;;;;;;;5053022;28;20285;-75
2023/07/11 04:00:42;;;;;;;7.97;4.53;;;;;;;;;;5053010;28;20061;-74
2023/07/11 04:03:08;;;;;;;7.18;4.35;;;;;;;;;;5052898;28;20117;-75
2023/07/11 04:05:33;;;;;;;7.73;5.20;;;;;;;;;;5053061;28;20096;-74
2023/07/11 04:07:58;;;;;;;7.43;5.07;;;;;;;;;;5052992;28;20644;-75
2023/07/11 04:10:23;;;;;;;6.20;4.47;;;;;;;;;;5052922;28;20059;-76
2023/07/11 04:12:50;;;;;;;7.93;4.70;;;;;;;;;;5052877;28;20266;-75
2023/07/11 04:15:15;;;;;;;6.50;4.85;;;;;;;;;;5052708;28;20067;-76
2023/07/11 04:17:41;;;;;;;7.28;4.60;;;;;;;;;;5052026;28;20033;-74
2023/07/11 04:20:07;;;;;;;6.03;4.50;;;;;;;;;;5053017;28;20025;-75
2023/07/11 04:22:32;;;;;;;7.25;4.57;;;;;;;;;;5052993;28;20099;-74
2023/07/11 04:24:57;;;;;;;12.70;5.20;;;;;;;;;;5055843;28;20124;-75
2023/07/11 04:27:24;;;;;;;6.40;4.70;;;;;;;;;;5056855;28;20249;-75
2023/07/11 04:29:49;;;;;;;7.13;4.78;;;;;;;;;;5056847;28;20311;-75
2023/07/11 04:32:14;;;;;;;9.30;4.70;;;;;;;;;;5056823;28;20033;-75
2023/07/11 04:34:40;;;;;;;7.93;4.57;;;;;;;;;;5056716;28;20246;-76
2023/07/11 04:37:06;;;;;;;10.77;4.70;;;;;;;;;;5055477;28;20262;-75
2023/07/11 04:39:31;;;;;;;6.75;4.68;;;;;;;;;;5057098;28;20032;-74
2023/07/11 04:41:56;;;;;;;6.05;5.05;;;;;;;;;;5056896;28;20036;-75
2023/07/11 04:44:22;;;;;;;6.93;4.63;;;;;;;;;;5056831;28;20032;-75
2023/07/11 04:46:47;;;;;;;9.55;6.10;;;;;;;;;;5056560;28;20257;-75
2023/07/11 04:49:12;;;;;;;8.93;4.77;;;;;;;;;;5056722;28;20052;-75
2023/07/11 04:51:37;;;;;;;6.27;4.33;;;;;;;;;;5056472;28;20246;-75
2023/07/11 04:54:02;;;;;;;8.43;4.83;;;;;;;;;;5056666;28;20257;-75
2023/07/11 04:56:28;;;;;;;5.93;4.45;;;;;;;;;;5056249;28;20277;-76
2023/07/11 04:58:53;;;;;;;7.73;4.77;;;;;;;;;;5056870;28;20384;-74
2023/07/11 05:01:18;;;;;;;7.30;4.60;;;;;;;;;;5056186;28;20262;-75
2023/07/11 05:03:44;;;;;;;7.10;4.57;;;;;;;;;;5056145;28;20365;-75
2023/07/11 05:06:11;;;;;;;7.88;4.97;;;;;;;;;;5054900;28;20510;-74
2023/07/11 05:08:37;;;;;;;12.48;4.32;;;;;;;;;;5056438;28;20434;-75
2023/07/11 05:11:14;;;;;;;8.20;4.70;;;;;;;;;;5054880;28;20021;-75
2023/07/11 05:13:41;;;;;;;6.32;4.55;;;;;;;;;;5056062;28;20250;-75
2023/07/11 05:16:12;;;;;;;10.48;4.30;;;;;;;;;;5056118;28;20032;-75
2023/07/11 05:18:40;;;;;;;7.32;4.47;;;;;;;;;;5056598;28;20468;-75
2023/07/11 05:21:09;;;;;;;8.25;4.18;;;;;;;;;;5055901;28;20476;-75
2023/07/11 05:23:35;;;;;;;5.85;4.35;;;;;;;;;;5054381;28;20025;-74
2023/07/11 05:26:00;;;;;;;7.25;4.30;;;;;;;;;;5055712;28;20051;-75
2023/07/11 05:28:26;;;;;;;5.93;4.20;;;;;;;;;;5055820;28;20484;-75
2023/07/11 05:30:53;;;;;;;9.38;4.10;;;;;;;;;;5055700;28;20039;-76
2023/07/11 05:33:18;;;;;;;6.80;3.72;;;;;;;;;;5054426;28;20055;-74
2023/07/11 05:35:57;;;;;;;7.07;3.97;;;;;;;;;;5055588;28;20107;-75
2023/07/11 05:38:23;;;;;;;6.13;3.97;;;;;;;;;;5054378;28;20092;-75
2023/07/11 05:40:48;;;;;;;5.93;4.00;;;;;;;;;;5055445;28;20047;-75
2023/07/11 05:43:14;;;;;;;8.70;4.40;;;;;;;;;;5054182;28;20040;-75
2023/07/11 05:45:42;;;;;;;8.35;3.85;;;;;;;;;;5055799;28;20258;-75
2023/07/11 05:48:07;;;;;;;7.15;4.07;;;;;;;;;;5054165;28;20052;-75
2023/07/11 05:50:32;;;;;;;6.60;4.10;;;;;;;;;;5055323;28;20106;-74
2023/07/11 05:52:58;;;;;;;6.10;4.03;;;;;;;;;;5055259;28;20265;-75
2023/07/11 05:55:23;;;;;;;5.97;3.65;;;;;;;;;;5055470;28;20303;-75
2023/07/11 05:57:48;;;;;;;7.00;4.30;;;;;;;;;;5055172;28;20032;-75
2023/07/11 06:00:14;;;;;;;7.50;3.63;;;;;;;;;;5055198;28;20261;-76
2023/07/11 06:02:40;;;;;;;8.27;4.00;;;;;;;;;;5055177;28;20329;-75
2023/07/11 06:05:05;;;;;;;10.00;4.30;;;;;;;;;;5053759;28;20112;-75
2023/07/11 06:07:30;;;;;;;5.15;3.92;;;;;;;;;;5055292;28;20285;-75
2023/07/11 06:09:56;;;;;;;4.80;3.72;;;;;;;;;;5055082;28;20025;-75
2023/07/11 06:12:22;;;;;;;8.55;4.10;;;;;;;;;;5055178;28;20506;-76
2023/07/11 06:14:49;;;;;;;6.50;4.25;;;;;;;;;;5054906;28;20021;-75
2023/07/11 06:17:15;;;;;;;5.80;3.38;;;;;;;;;;5054936;28;20093;-75
2023/07/11 06:19:40;;;;;;;7.55;3.47;;;;;;;;;;5054817;28;20060;-75
2023/07/11 06:22:05;;;;;;;4.32;3.40;;;;;;;;;;5055058;28;20420;-75
2023/07/11 06:24:31;;;;;;;10.93;3.70;;;;;;;;;;5054672;28;20029;-75
2023/07/11 06:26:56;;;;;;;6.10;3.87;;;;;;;;;;5053466;28;20258;-75
2023/07/11 06:29:21;;;;;;;7.73;3.63;;;;;;;;;;5054753;28;20308;-75
2023/07/11 06:31:46;;;;;;;5.33;3.17;;;;;;;;;;5054850;28;20293;-75
2023/07/11 06:34:11;;;;;;;5.03;3.10;;;;;;;;;;5053311;28;20289;-75
2023/07/11 06:36:37;;;;;;;4.13;2.70;;;;;;;;;;5053140;28;20028;-75
2023/07/11 06:39:02;;;;;;;5.73;2.93;;;;;;;;;;5054595;28;20253;-75
2023/07/11 06:41:28;;;;;;;6.00;3.42;;;;;;;;;;5054306;28;20364;-75
2023/07/11 06:43:54;;;;;;;5.78;3.47;;;;;;;;;;5054309;28;20053;-75
2023/07/11 06:46:19;;;;;;;6.22;3.10;;;;;;;;;;5053836;28;20063;-75
2023/07/11 06:48:44;;;;;;;5.82;3.10;;;;;;;;;;5054792;28;20083;-75
2023/07/11 06:51:10;;;;;;;5.17;2.80;;;;;;;;;;5054131;28;20032;-75
2023/07/11 06:53:35;;;;;;;4.68;2.95;;;;;;;;;;5054383;28;20029;-75
2023/07/11 06:56:01;;;;;;;4.60;2.88;;;;;;;;;;5054040;28;20029;-75
2023/07/11 06:58:27;;;;;;;6.40;2.88;;;;;;;;;;5054070;28;20025;-75
2023/07/11 07:00:55;;;;;;;9.43;3.03;;;;;;;;;;5052856;28;20028;-75
2023/07/11 07:03:20;;;;;;;6.75;3.15;;;;;;;;;;5054170;28;20021;-75
2023/07/11 07:05:54;;;;;;;7.93;3.00;;;;;;;;;;5052589;28;20032;-75
2023/07/11 07:08:20;;;;;;;;;;;;;;;;;;5054385;28;20078;-75
2023/07/11 07:10:47;;;;;;;5.05;2.53;;;;;;;;;;5053984;28;19909;-74
2023/07/11 07:13:13;;;;;;;6.97;2.63;;;;;;;;;;5053866;28;20103;-75
2023/07/11 07:15:38;;;;;;;5.63;2.35;;;;;;;;;;5053687;28;20051;-76
2023/07/11 07:18:03;;;;;;;5.47;2.40;;;;;;;;;;5053741;28;20034;-75
2023/07/11 07:20:29;;;;;;;3.65;2.40;;;;;;;;;;5052433;28;20253;-75
2023/07/11 07:22:54;;;;;;;4.20;2.10;;;;;;;;;;5053655;28;20078;-76
2023/07/11 07:25:19;;;;;;;3.35;2.13;;;;;;;;;;5053598;28;20312;-75
2023/07/11 07:27:44;;;;;;;5.20;2.20;;;;;;;;;;5053587;28;20074;-75
2023/07/11 07:30:11;;;;;;;4.33;2.23;;;;;;;;;;5054036;28;20261;-76
2023/07/11 07:32:37;;;;;;;5.15;2.20;;;;;;;;;;5053513;28;20254;-75
2023/07/11 07:35:02;;;;;;;3.45;2.30;;;;;;;;;;5052042;28;20024;-75
2023/07/11 07:37:27;;;;;;;2.85;1.88;;;;;;;;;;5053206;28;20048;-75
2023/07/11 07:39:52;;;;;;;4.33;1.90;;;;;;;;;;5053142;28;20406;-75
2023/07/11 07:42:18;;;;;;;2.47;1.80;;;;;;;;;;5052150;28;20404;-75
2023/07/11 07:44:43;;;;;;;4.00;2.33;;;;;;;;;;5053092;28;20680;-75
2023/07/11 07:47:08;;;;;;;6.70;2.20;;;;;;;;;;5053012;28;20340;-75
2023/07/11 07:49:33;;;;;;;2.57;1.70;;;;;;;;;;5052914;28;20104;-75
2023/07/11 07:51:59;;;;;;;4.03;1.87;;;;;;;;;;5053130;28;20114;-75
2023/07/11 07:54:26;;;;;;;6.27;2.00;;;;;;;;;;5053008;28;20025;-75
2023/07/11 07:56:51;;;;;;;4.10;2.00;;;;;;;;;;5052806;28;20033;-75
2023/07/11 07:59:17;;;;;;;3.60;1.88;;;;;;;;;;5052550;28;20024;-75
2023/07/11 08:01:42;;;;;;;3.27;1.60;;;;;;;;;;5052976;28;20029;-76
2023/07/11 08:04:07;;;;;;;2.57;1.50;;;;;;;;;;5053472;28;20128;-74
2023/07/11 08:06:32;;;;;;;6.03;2.00;;;;;;;;;;5053198;28;20063;-75
2023/07/11 08:08:57;;;;;;;4.27;1.70;;;;;;;;;;5053439;28;20036;-76
2023/07/11 08:11:23;;;;;;;4.50;1.80;;;;;;;;;;5053210;28;20021;-75
2023/07/11 08:13:48;;;;;;;3.83;1.70;;;;;;;;;;5052888;28;20020;-75
2023/07/11 08:16:14;;;;;;;3.65;1.70;;;;;;;;;;5052791;28;20258;-75
2023/07/11 08:18:40;;;;;;;4.25;1.60;;;;;;;;;;5051696;28;20051;-75
2023/07/11 08:21:05;;;;;;;5.70;1.90;;;;;;;;;;5052851;28;20472;-73
2023/07/11 08:23:30;;;;;;;4.57;1.70;;;;;;;;;;5052756;28;20725;-74
2023/07/11 08:25:55;;;;;;;4.67;1.80;;;;;;;;;;5051439;28;20464;-75
2023/07/11 08:28:21;;;;;;;2.88;1.50;;;;;;;;;;5052261;28;20262;-75
2023/07/11 08:30:46;;;;;;;3.88;1.70;;;;;;;;;;5052724;28;20439;-75
2023/07/11 08:33:12;;;;;;;4.82;1.70;;;;;;;;;;5053263;28;20021;-74
2023/07/11 08:35:37;;;;;;;2.97;1.80;;;;;;;;;;5052568;28;20083;-74
2023/07/11 08:38:03;;;;;;;2.37;1.67;;;;;;;;;;5052879;28;20040;-75
2023/07/11 08:40:32;;;;;;;7.57;2.10;;;;;;;;;;5052655;28;20740;-74
2023/07/11 08:43:03;;;;;;;5.20;2.10;;;;;;;;;;5052975;28;20032;-75
2023/07/11 08:45:33;;;;;;;3.83;1.88;;;;;;;;;;5052743;28;20032;-76
2023/07/11 08:48:04;;;;;;;3.05;1.73;;;;;;;;;;5052412;28;20020;-75
2023/07/11 08:50:40;;;;;;;2.50;1.67;;;;;;;;;;5051489;28;20024;-75
2023/07/11 08:53:11;;;;;;;4.50;1.70;;;;;;;;;;5052788;28;20479;-74
2023/07/11 08:55:41;;;;;;;4.32;1.60;;;;;;;;;;5052512;28;20108;-75
2023/07/11 08:58:24;;;;;;;3.40;1.70;;;;;;;;;;5051121;28;20025;-75
2023/07/11 09:00:50;;;;;;;2.67;1.65;;;;;;;;;;5051145;28;20048;-75
2023/07/11 09:03:26;;;;;;;3.80;1.70;;;;;;;;;;5051084;28;20025;-75
2023/07/11 09:06:01;;;;;;;4.35;1.75;;;;;;;;;;5052314;28;20036;-74
2023/07/11 09:08:26;;;;;;;4.20;1.73;;;;;;;;;;5051098;28;20029;-75
2023/07/11 09:11:07;;;;;;;10.10;2.10;;;;;;;;;;5056137;28;20028;-75
2023/07/11 09:13:51;;;;;;;5.47;1.80;;;;;;;;;;5054812;28;20025;-73
2023/07/11 09:16:25;;;;;;;;;;;;;;;;;;5055186;28;20052;-75
2023/07/11 09:18:53;;;;;;;5.10;1.83;;;;;;;;;;5054788;28;19958;-75
2023/07/11 09:21:26;;;;;;;3.80;2.00;;;;;;;;;;5056410;28;20112;-74
2023/07/11 09:24:09;;;;;;;5.80;1.95;;;;;;;;;;5055951;28;20083;-75
2023/07/11 09:26:38;;;;;;;5.78;1.70;;;;;;;;;;5055779;28;20479;-75
2023/07/11 09:29:05;;;;;;;3.85;1.70;;;;;;;;;;5055992;28;20031;-75
2023/07/11 09:31:41;;;;;;;5.22;1.88;;;;;;;;;;5054414;28;20549;-75
2023/07/11 09:34:25;;;;;;;5.25;1.83;;;;;;;;;;5056020;28;20040;-74
2023/07/11 09:36:52;;;;;;;2.72;1.60;;;;;;;;;;5055560;28;20498;-75
2023/07/11 09:39:40;;;;;;;3.78;1.60;;;;;;;;;;5055534;28;20400;-75
2023/07/11 09:42:31;;;;;;;3.50;2.00;;;;;;;;;;5056095;28;20087;-75
2023/07/11 09:45:05;;;;;;;3.53;1.65;;;;;;;;;;5055906;28;20029;-76
2023/07/11 09:47:32;;;;;;;3.38;1.80;;;;;;;;;;5055367;28;20036;-74
2023/07/11 09:49:59;;;;;;;2.83;1.80;;;;;;;;;;5054399;28;20055;-75
2023/07/11 09:52:27;;;;;;;2.78;1.60;;;;;;;;;;5054096;28;20506;-75
2023/07/11 09:54:54;;;;;;;4.18;1.75;;;;;;;;;;5055619;28;20021;-75
2023/07/11 09:57:19;;;;;;;2.30;1.77;;;;;;;;;;5053965;28;20031;-75
2023/07/11 09:59:54;;;;;;;4.65;1.83;;;;;;;;;;5053909;28;20116;-74
2023/07/11 10:02:22;;;;;;;2.85;1.52;;;;;;;;;;5053980;28;20368;-75
2023/07/11 10:04:47;;;;;;;2.35;1.73;;;;;;;;;;5054987;28;20060;-75
2023/07/11 10:07:14;;;;;;;2.50;1.63;;;;;;;;;;5055072;28;20056;-75
2023/07/11 10:09:59;;;;;;;3.22;1.90;;;;;;;;;;5055485;28;20288;-75
2023/07/11 10:12:24;;;;;;;2.80;1.52;;;;;;;;;;5053776;28;20442;-74
2023/07/11 10:15:00;;;;;;;2.75;1.58;;;;;;;;;;5053605;28;20021;-75
2023/07/11 10:17:32;;;;;;;2.80;1.80;;;;;;;;;;5053467;28;20107;-75
2023/07/11 10:19:59;;;;;;;3.35;1.60;;;;;;;;;;5053215;28;20115;-75
2023/07/11 10:22:28;;;;;;;3.53;1.77;;;;;;;;;;5054263;28;20108;-75
2023/07/11 10:25:27;;;;;;;2.42;1.60;;;;;;;;;;5054625;28;20483;-75
2023/07/11 10:28:08;;;;;;;5.50;1.92;;;;;;;;;;5046245;28;20380;-75
2023/07/11 10:30:36;;;;;;;6.75;2.10;;;;;;;;;;5054797;28;20032;-74
2023/07/11 10:33:12;;;;;;;3.38;1.63;;;;;;;;;;5054530;28;20021;-75
2023/07/11 10:35:39;;;;;;;2.50;1.80;;;;;;;;;;5054479;28;20108;-75
2023/07/11 10:38:15;;;;;;;5.15;2.35;;;;;;;;;;5054733;28;20024;-74
2023/07/11 10:40:44;;;;;;;2.70;1.83;;;;;;;;;;5053532;28;20024;-75
2023/07/11 10:43:27;;;;;;;3.13;2.10;;;;;;;;;;5052949;28;20032;-75
2023/07/11 10:46:02;;;;;;;5.25;1.92;;;;;;;;;;5054263;28;20406;-75
2023/07/11 10:48:32;;;;;;;7.60;2.30;;;;;;;;;;5054356;28;20036;-75
2023/07/11 10:51:07;;;;;;;3.40;2.15;;;;;;;;;;5054283;28;20021;-75
2023/07/11 10:53:47;;;;;;;2.95;1.80;;;;;;;;;;5052978;28;20017;-73
2023/07/11 10:56:19;;;;;;;5.78;1.92;;;;;;;;;;5054265;28;20074;-75
2023/07/11 10:58:44;;;;;;;3.78;1.92;;;;;;;;;;5054346;28;20050;-75
2023/07/11 11:01:18;;;;;;;3.13;1.90;;;;;;;;;;5054169;28;20108;-74
2023/07/11 11:03:46;;;;;;;4.45;1.95;;;;;;;;;;5054570;28;20305;-75
2023/07/11 11:06:33;;;;;;;6.53;2.00;;;;;;;;;;5053713;28;20479;-74
2023/07/11 11:09:08;;;;;;;3.80;2.00;;;;;;;;;;5054030;28;20064;-75
2023/07/11 11:11:48;;;;;;;4.40;2.10;;;;;;;;;;5053870;28;20025;-75
2023/07/11 11:14:20;;;;;;;3.65;1.90;;;;;;;;;;5054096;28;20013;-75
2023/07/11 11:17:14;;;;;;;4.80;2.08;;;;;;;;;;5052534;28;20029;-75
2023/07/11 11:20:05;;;;;;;3.05;2.10;;;;;;;;;;5053626;28;20024;-75
2023/07/11 11:22:58;;;;;;;6.28;2.08;;;;;;;;;;5053646;28;20021;-74
2023/07/11 11:25:37;;;;;;;7.63;2.20;;;;;;;;;;5053596;28;20025;-75
2023/07/11 11:28:14;;;;;;;3.65;2.08;;;;;;;;;;5053892;28;20029;-75
2023/07/11 11:31:15;;;;;;;3.85;2.30;;;;;;;;;;5053529;28;20484;-74
2023/07/11 11:34:09;;;;;;;5.15;2.13;;;;;;;;;;5053400;28;20025;-74
2023/07/11 11:36:59;;;;;;;3.65;2.13;;;;;;;;;;5053664;28;20025;-75
2023/07/11 11:39:59;;;;;;;7.10;2.55;;;;;;;;;;5053554;28;20392;-75
2023/07/11 11:42:30;;;;;;;3.75;2.00;;;;;;;;;;5053638;28;20025;-74
2023/07/11 11:45:01;;;;;;;3.70;2.20;;;;;;;;;;5053150;28;20031;-75
2023/07/11 11:47:27;;;;;;;3.83;2.40;;;;;;;;;;5051915;28;20024;-76
2023/07/11 11:49:54;;;;;;;4.53;2.40;;;;;;;;;;5051957;28;20052;-75
2023/07/11 11:52:21;;;;;;;7.60;2.58;;;;;;;;;;5053436;28;20035;-75
2023/07/11 11:54:48;;;;;;;4.55;2.60;;;;;;;;;;5051746;28;20021;-75
2023/07/11 11:57:27;;;;;;;5.47;2.75;;;;;;;;;;5053042;28;20029;-74
2023/07/11 11:59:53;;;;;;;5.85;2.45;;;;;;;;;;5053300;28;20475;-74
2023/07/11 12:02:44;;;;;;;3.78;2.42;;;;;;;;;;5052979;28;20053;-75
2023/07/11 12:05:18;;;;;;;5.18;2.70;;;;;;;;;;5050229;28;20036;-75
2023/07/11 12:07:44;;;;;;;3.28;2.42;;;;;;;;;;5051824;28;20116;-75
2023/07/11 12:10:19;;;;;;;4.78;2.75;;;;;;;;;;5052929;28;20049;-75
2023/07/11 12:12:45;;;;;;;4.82;2.40;;;;;;;;;;5053175;28;20033;-75
2023/07/11 12:15:10;;;;;;;4.43;2.55;;;;;;;;;;5052906;28;20384;-75
2023/07/11 12:17:36;;;;;;;4.82;2.70;;;;;;;;;;5052841;28;20033;-75
2023/07/11 12:20:01;;;;;;;4.10;2.58;;;;;;;;;;5051563;28;20518;-75
2023/07/11 12:22:50;;;;;;;6.90;2.70;;;;;;;;;;5052783;28;20036;-75
2023/07/11 12:25:30;;;;;;;3.97;2.60;;;;;;;;;;5042448;28;20129;-75
2023/07/11 12:28:01;;;;;;;6.28;2.63;;;;;;;;;;5051727;28;20131;-75
2023/07/11 12:30:26;;;;;;;9.23;2.88;;;;;;;;;;5052836;28;20020;-75
2023/07/11 12:32:54;;;;;;;4.73;2.70;;;;;;;;;;5051496;28;20029;-74
2023/07/11 12:35:22;;;;;;;3.97;2.85;;;;;;;;;;5052619;28;20033;-75
2023/07/11 12:38:00;;;;;;;5.25;2.75;;;;;;;;;;5052679;28;20079;-75
2023/07/11 12:41:06;;;;;;;4.35;2.92;;;;;;;;;;5051175;28;20121;-75
2023/07/11 12:43:35;;;;;;;9.82;3.58;;;;;;;;;;5053052;28;20033;-75
2023/07/11 12:46:12;;;;;;;9.63;5.60;;;;;;;;;;5055314;28;20025;-75
2023/07/11 12:48:45;;;;;;;6.13;3.42;;;;;;;;;;5056691;28;20502;-75
2023/07/11 12:51:45;;;;;;;8.18;3.50;;;;;;;;;;5055254;28;20051;-75
2023/07/11 12:54:17;;;;;;;8.60;3.20;;;;;;;;;;5034512;28;20115;-75
2023/07/11 12:56:45;;;;;;;8.57;3.45;;;;;;;;;;5052770;28;20041;-74
2023/07/11 12:59:27;;;;;;;6.70;3.88;;;;;;;;;;5055082;28;20039;-75
2023/07/11 13:01:56;;;;;;;8.25;3.50;;;;;;;;;;5056464;28;20497;-75
2023/07/11 13:04:35;;;;;;;9.52;3.47;;;;;;;;;;5056154;28;20468;-75
2023/07/11 13:07:03;;;;;;;5.15;3.63;;;;;;;;;;5056199;28;20115;-75
2023/07/11 13:09:39;;;;;;;8.68;3.80;;;;;;;;;;5054972;28;20024;-75
2023/07/11 13:12:10;;;;;;;7.35;3.90;;;;;;;;;;5056255;28;20025;-75
2023/07/11 13:14:35;;;;;;;5.32;3.75;;;;;;;;;;5055822;28;20361;-74
2023/07/11 13:17:02;;;;;;;7.10;4.00;;;;;;;;;;5055493;28;20178;-75
2023/07/11 13:19:27;;;;;;;7.90;5.07;;;;;;;;;;5055796;28;20258;-75
2023/07/11 13:21:52;;;;;;;7.67;5.40;;;;;;;;;;5054133;28;20071;-75
2023/07/11 13:24:26;;;;;;;8.27;6.03;;;;;;;;;;5055279;28;20290;-74
2023/07/11 13:26:54;;;;;;;10.75;5.65;;;;;;;;;;5054418;28;20025;-74
2023/07/11 13:29:21;;;;;;;13.52;5.90;;;;;;;;;;5056153;28;20100;-74
2023/07/11 13:31:59;;;;;;;10.63;6.53;;;;;;;;;;5055697;28;20032;-76
2023/07/11 13:34:29;;;;;;;10.35;6.72;;;;;;;;;;5055961;28;20024;-75
2023/07/11 13:36:55;;;;;;;9.18;6.25;;;;;;;;;;5056082;28;20106;-76
2023/07/11 13:39:34;;;;;;;11.73;6.47;;;;;;;;;;5055666;28;20079;-75
2023/07/11 13:42:10;;;;;;;8.73;5.95;;;;;;;;;;5054674;28;20463;-75
2023/07/11 13:44:40;;;;;;;9.68;6.70;;;;;;;;;;5055547;28;20074;-75
2023/07/11 13:47:18;;;;;;;11.23;6.10;;;;;;;;;;5055414;28;20025;-75
2023/07/11 13:49:46;;;;;;;9.95;6.70;;;;;;;;;;5055950;28;20036;-74
2023/07/11 13:52:33;;;;;;;10.10;6.32;;;;;;;;;;5054030;28;20052;-74
2023/07/11 13:55:22;;;;;;;9.18;6.43;;;;;;;;;;5054739;28;20446;-76
2023/07/11 13:57:47;;;;;;;9.50;6.10;;;;;;;;;;5055508;28;20086;-75
2023/07/11 14:00:15;;;;;;;10.00;6.32;;;;;;;;;;5055478;28;20021;-75
2023/07/11 14:02:42;;;;;;;8.65;6.30;;;;;;;;;;5055581;28;20024;-74
2023/07/11 14:05:16;;;;;;;10.48;6.03;;;;;;;;;;5054958;28;20064;-74
2023/07/11 14:07:41;;;;;;;10.13;5.95;;;;;;;;;;5055364;28;20358;-75
2023/07/11 14:10:08;;;;;;;13.33;6.50;;;;;;;;;;5054982;28;20021;-75
2023/07/11 14:12:33;;;;;;;10.15;6.47;;;;;;;;;;5054884;28;20025;-75
2023/07/11 14:14:59;;;;;;;10.47;6.10;;;;;;;;;;5054893;28;20052;-75
2023/07/11 14:17:24;;;;;;;7.10;5.95;;;;;;;;;;5053623;28;20020;-75
2023/07/11 14:19:49;;;;;;;9.07;5.80;;;;;;;;;;5055018;28;20587;-75
2023/07/11 14:22:23;;;;;;;8.00;5.87;;;;;;;;;;5054838;28;20266;-74
2023/07/11 14:24:48;;;;;;;8.30;5.88;;;;;;;;;;5054744;28;20021;-75
2023/07/11 14:27:16;;;;;;;12.53;6.30;;;;;;;;;;5054733;28;20075;-75
2023/07/11 14:29:41;;;;;;;8.48;5.60;;;;;;;;;;5055284;28;20422;-75
2023/07/11 14:32:13;;;;;;;7.43;5.75;;;;;;;;;;5054610;28;20021;-75
2023/07/11 14:34:39;;;;;;;8.68;5.95;;;;;;;;;;5054579;28;20029;-75
2023/07/11 14:37:04;;;;;;;10.02;5.70;;;;;;;;;;5054510;28;20070;-75
2023/07/11 14:39:30;;;;;;;8.30;5.65;;;;;;;;;;5053171;28;20442;-75
2023/07/11 14:41:55;;;;;;;10.37;6.30;;;;;;;;;;5054506;28;20480;-75
2023/07/11 14:44:25;;;;;;;8.47;5.40;;;;;;;;;;5053054;28;20301;-75
2023/07/11 14:46:52;;;;;;;10.13;6.10;;;;;;;;;;5054181;28;20037;-75
2023/07/11 14:49:21;;;;;;;8.68;5.72;;;;;;;;;;5054643;28;20106;-75
2023/07/11 14:51:48;;;;;;;9.05;6.40;;;;;;;;;;5054651;28;20108;-74
2023/07/11 14:54:19;;;;;;;11.70;5.85;;;;;;;;;;5054656;28;20028;-75